Eships Dana — ZDJT6 — position and weather

sailwx.info

Track history (hours):
 
Tides and Currents Weather Stations Pressure Air Temp Water Temp Dewpoint Dewpoint Depression Visibility Wind Speed Wind Dir Waves Ship Positions

Eships Dana

Last reported at 2015-Aug-01 07:28 UTC. Time now 2015-Aug-01 07:46 UTC.
Position N 47°18' W 002°04'.

Length 116 m; draft 5.6 m.

Type: Tanker. MMSI: 236566000.

Date/timePositionNaut miles runAvg speedWind from/ knotsBaromVisibWave heightAir tempDewpointWater temp
2015-Aug-01 07:28N 47°18' W 002°04'0 0.0
2015-Aug-01 06:28N 47°18' W 002°04'0 0.0
2015-Aug-01 05:10N 47°18' W 002°04'0 0.0
2015-Aug-01 04:28N 47°18' W 002°04'0 0.0
2015-Aug-01 03:13N 47°18' W 002°04'0 0.0
2015-Aug-01 02:31N 47°18' W 002°04'0 0.0
2015-Aug-01 01:19N 47°18' W 002°04'0 0.0
2015-Aug-01 00:28N 47°18' W 002°04'0 0.0
2015-Jul-31 23:31N 47°18' W 002°04'0 0.0
2015-Jul-31 22:28N 47°18' W 002°04'0 0.0
2015-Jul-31 07:10N 47°18' W 002°04'0 0.0
2015-Jul-31 06:19N 47°18' W 002°04'0 0.0
2015-Jul-31 05:31N 47°18' W 002°04'0 0.0
2015-Jul-31 04:28N 47°18' W 002°04'0 0.0
2015-Jul-31 03:31N 47°18' W 002°04'0 0.0
2015-Jul-31 02:25N 47°18' W 002°04'0 0.0
2015-Jul-31 01:28N 47°18' W 002°04'0 0.0
2015-Jul-31 00:31N 47°18' W 002°04'0 0.0
2015-Jul-30 23:31N 47°18' W 002°04'0 0.0
2015-Jul-30 22:31N 47°18' W 002°04'0 0.0
2015-Jul-30 05:28N 47°18' W 002°04'0 0.0
2015-Jul-30 01:22N 47°18' W 002°04'0 0.0
2015-Jul-30 00:19N 47°18' W 002°04'0 0.0
2015-Jul-29 08:27N 47°18' W 002°04'7 8.1
2015-Jul-29 07:33N 47°15' W 002°14'1010.0
2015-Jul-29 06:32N 47°07' W 002°23'6 5.9
2015-Jul-29 05:33N 47°03' W 002°30'4 3.8
2015-Jul-29 04:33N 47°01' W 002°34'1212.5
2015-Jul-29 03:34N 46°56' W 002°51'1613.9
2015-Jul-29 02:26N 46°48' W 003°10'1413.8
2015-Jul-29 01:27N 46°40' W 003°27'1414.1
2015-Jul-29 00:26N 46°32' W 003°44'51512.9
2015-Jul-27 08:32N 39°15' W 009°56'1414.1
2015-Jul-27 07:33N 39°01' W 009°56'1514.5
2015-Jul-27 06:33N 38°46' W 009°57'1414.1
2015-Jul-27 05:33N 38°32' W 009°56'1414.1
2015-Jul-27 04:33N 38°18' W 009°56'1414.0
2015-Jul-27 03:33N 38°04' W 009°56'1413.9
2015-Jul-27 02:33N 37°50' W 009°56'1414.0
2015-Jul-27 01:33N 37°36' W 009°56'1413.9
2015-Jul-27 00:33N 37°22' W 009°56'1413.6
2015-Jul-26 23:33N 37°09' W 009°56'1413.9
2015-Jul-26 22:33N 36°55' W 009°56'1413.6
2015-Jul-26 21:33N 36°41' W 009°56'1513.3
2015-Jul-26 20:25N 36°26' W 009°56'1213.0
2015-Jul-26 19:27N 36°14' W 009°56'2513.2
2015-Jul-26 17:32N 35°50' W 009°45'1513.3
2015-Jul-26 16:25N 35°35' W 009°40'1213.6
2015-Jul-26 15:30N 35°24' W 009°35'1313.5
2015-Jul-26 14:33N 35°12' W 009°30'1413.6
2015-Jul-26 13:33N 34°59' W 009°25'4513.5
2015-Jul-26 10:12N 34°16' W 009°07'  
2015-Jul-23 21:29N 33°09' W 008°42'0 0.0
2015-Jul-23 20:05N 33°09' W 008°42'0 0.0
2015-Jul-23 19:11N 33°09' W 008°42'0 0.0
2015-Jul-23 18:32N 33°09' W 008°42'0 0.0
2015-Jul-23 17:23N 33°09' W 008°42'0 0.0
2015-Jul-23 16:26N 33°09' W 008°42'0 0.0
2015-Jul-23 14:20N 33°09' W 008°42'0 0.0
2015-Jul-23 13:32N 33°09' W 008°42'0 0.0
2015-Jul-23 12:29N 33°09' W 008°42'0 0.0
2015-Jul-23 11:29N 33°09' W 008°42'0 0.0
2015-Jul-23 10:32N 33°09' W 008°42'0 0.0
2015-Jul-23 09:29N 33°09' W 008°42'0 0.0
2015-Jul-23 08:32N 33°09' W 008°42'0 0.0
2015-Jul-23 07:32N 33°09' W 008°42'0 0.0
2015-Jul-23 06:32N 33°09' W 008°42'2 1.9
2015-Jul-23 05:22N 33°11' W 008°43'1012.3
2015-Jul-23 04:33N 33°20' W 008°45'1514.8
2015-Jul-23 03:33N 33°35' W 008°51'1514.7
2015-Jul-23 02:33N 33°49' W 008°56'1514.7
2015-Jul-23 01:33N 34°03' W 009°01'1514.7
2015-Jul-23 00:33N 34°17' W 009°07'1514.7
2015-Jul-22 23:33N 34°30' W 009°13'1514.6
2015-Jul-22 22:33N 34°45' W 009°18'1414.5
2015-Jul-22 21:33N 34°58' W 009°24'1514.7
2015-Jul-22 20:33N 35°12' W 009°29'1514.7
2015-Jul-22 19:33N 35°26' W 009°35'1514.8
2015-Jul-22 18:33N 35°40' W 009°40'1515.0
2015-Jul-22 17:33N 35°55' W 009°46'1514.9
2015-Jul-22 16:33N 36°09' W 009°51'1514.8
2015-Jul-22 15:33N 36°23' W 009°57'1514.9
2015-Jul-22 14:34N 36°37' W 010°03'1515.1
2015-Jul-22 13:33N 36°52' W 010°09'1514.7
2015-Jul-22 12:33N 37°06' W 010°12'1514.5
2015-Jul-22 11:33N 37°20' W 010°12'1515.0
2015-Jul-22 10:33N 37°36' W 010°12'1514.6
2015-Jul-22 09:33N 37°50' W 010°12'1414.2
2015-Jul-22 08:33N 38°04' W 010°12'1414.1
2015-Jul-22 07:34N 38°18' W 010°12'  
Track history (hours):
 
Tides and Currents Weather Stations Pressure Air Temp Water Temp Dewpoint Dewpoint Depression Visibility Wind Speed Wind Dir Waves Ship Positions

Eships Dana

Last reported at 2015-Aug-01 07:28 UTC. Time now 2015-Aug-01 07:46 UTC.
Position N 47°18' W 002°04'.

Length 116 m; draft 5.6 m.

Type: Tanker. MMSI: 236566000.

Date/timePositionNaut miles runAvg speedWind from/ knotsBaromVisibWave heightAir tempDewpointWater temp
2015-Aug-01 07:28N 47°18' W 002°04'0 0.0
2015-Aug-01 06:28N 47°18' W 002°04'0 0.0
2015-Aug-01 05:10N 47°18' W 002°04'0 0.0
2015-Aug-01 04:28N 47°18' W 002°04'0 0.0
2015-Aug-01 03:13N 47°18' W 002°04'0 0.0
2015-Aug-01 02:31N 47°18' W 002°04'0 0.0
2015-Aug-01 01:19N 47°18' W 002°04'0 0.0
2015-Aug-01 00:28N 47°18' W 002°04'0 0.0
2015-Jul-31 23:31N 47°18' W 002°04'0 0.0
2015-Jul-31 22:28N 47°18' W 002°04'0 0.0
2015-Jul-31 07:10N 47°18' W 002°04'0 0.0
2015-Jul-31 06:19N 47°18' W 002°04'0 0.0
2015-Jul-31 05:31N 47°18' W 002°04'0 0.0
2015-Jul-31 04:28N 47°18' W 002°04'0 0.0
2015-Jul-31 03:31N 47°18' W 002°04'0 0.0
2015-Jul-31 02:25N 47°18' W 002°04'0 0.0
2015-Jul-31 01:28N 47°18' W 002°04'0 0.0
2015-Jul-31 00:31N 47°18' W 002°04'0 0.0
2015-Jul-30 23:31N 47°18' W 002°04'0 0.0
2015-Jul-30 22:31N 47°18' W 002°04'0 0.0
2015-Jul-30 05:28N 47°18' W 002°04'0 0.0
2015-Jul-30 01:22N 47°18' W 002°04'0 0.0
2015-Jul-30 00:19N 47°18' W 002°04'0 0.0
2015-Jul-29 08:27N 47°18' W 002°04'7 8.1
2015-Jul-29 07:33N 47°15' W 002°14'1010.0
2015-Jul-29 06:32N 47°07' W 002°23'6 5.9
2015-Jul-29 05:33N 47°03' W 002°30'4 3.8
2015-Jul-29 04:33N 47°01' W 002°34'1212.5
2015-Jul-29 03:34N 46°56' W 002°51'1613.9
2015-Jul-29 02:26N 46°48' W 003°10'1413.8
2015-Jul-29 01:27N 46°40' W 003°27'1414.1
2015-Jul-29 00:26N 46°32' W 003°44'51512.9
2015-Jul-27 08:32N 39°15' W 009°56'1414.1
2015-Jul-27 07:33N 39°01' W 009°56'1514.5
2015-Jul-27 06:33N 38°46' W 009°57'1414.1
2015-Jul-27 05:33N 38°32' W 009°56'1414.1
2015-Jul-27 04:33N 38°18' W 009°56'1414.0
2015-Jul-27 03:33N 38°04' W 009°56'1413.9
2015-Jul-27 02:33N 37°50' W 009°56'1414.0
2015-Jul-27 01:33N 37°36' W 009°56'1413.9
2015-Jul-27 00:33N 37°22' W 009°56'1413.6
2015-Jul-26 23:33N 37°09' W 009°56'1413.9
2015-Jul-26 22:33N 36°55' W 009°56'1413.6
2015-Jul-26 21:33N 36°41' W 009°56'1513.3
2015-Jul-26 20:25N 36°26' W 009°56'1213.0
2015-Jul-26 19:27N 36°14' W 009°56'2513.2
2015-Jul-26 17:32N 35°50' W 009°45'1513.3
2015-Jul-26 16:25N 35°35' W 009°40'1213.6
2015-Jul-26 15:30N 35°24' W 009°35'1313.5
2015-Jul-26 14:33N 35°12' W 009°30'1413.6
2015-Jul-26 13:33N 34°59' W 009°25'4513.5
2015-Jul-26 10:12N 34°16' W 009°07'  
2015-Jul-23 21:29N 33°09' W 008°42'0 0.0
2015-Jul-23 20:05N 33°09' W 008°42'0 0.0
2015-Jul-23 19:11N 33°09' W 008°42'0 0.0
2015-Jul-23 18:32N 33°09' W 008°42'0 0.0
2015-Jul-23 17:23N 33°09' W 008°42'0 0.0
2015-Jul-23 16:26N 33°09' W 008°42'0 0.0
2015-Jul-23 14:20N 33°09' W 008°42'0 0.0
2015-Jul-23 13:32N 33°09' W 008°42'0 0.0
2015-Jul-23 12:29N 33°09' W 008°42'0 0.0
2015-Jul-23 11:29N 33°09' W 008°42'0 0.0
2015-Jul-23 10:32N 33°09' W 008°42'0 0.0
2015-Jul-23 09:29N 33°09' W 008°42'0 0.0
2015-Jul-23 08:32N 33°09' W 008°42'0 0.0
2015-Jul-23 07:32N 33°09' W 008°42'0 0.0
2015-Jul-23 06:32N 33°09' W 008°42'2 1.9
2015-Jul-23 05:22N 33°11' W 008°43'1012.3
2015-Jul-23 04:33N 33°20' W 008°45'1514.8
2015-Jul-23 03:33N 33°35' W 008°51'1514.7
2015-Jul-23 02:33N 33°49' W 008°56'1514.7
2015-Jul-23 01:33N 34°03' W 009°01'1514.7
2015-Jul-23 00:33N 34°17' W 009°07'1514.7
2015-Jul-22 23:33N 34°30' W 009°13'1514.6
2015-Jul-22 22:33N 34°45' W 009°18'1414.5
2015-Jul-22 21:33N 34°58' W 009°24'1514.7
2015-Jul-22 20:33N 35°12' W 009°29'1514.7
2015-Jul-22 19:33N 35°26' W 009°35'1514.8
2015-Jul-22 18:33N 35°40' W 009°40'1515.0
2015-Jul-22 17:33N 35°55' W 009°46'1514.9
2015-Jul-22 16:33N 36°09' W 009°51'1514.8
2015-Jul-22 15:33N 36°23' W 009°57'1514.9
2015-Jul-22 14:34N 36°37' W 010°03'1515.1
2015-Jul-22 13:33N 36°52' W 010°09'1514.7
2015-Jul-22 12:33N 37°06' W 010°12'1514.5
2015-Jul-22 11:33N 37°20' W 010°12'1515.0
2015-Jul-22 10:33N 37°36' W 010°12'1514.6
2015-Jul-22 09:33N 37°50' W 010°12'1414.2
2015-Jul-22 08:33N 38°04' W 010°12'1414.1
2015-Jul-22 07:34N 38°18' W 010°12'  

Dump ship's entire track history